Time;durP1;ratioP1;P1;durP2;ratioP2;P2;SDS_P1;SDS_P2;PMS_P1;PMS_P2;Temp;Humidity;BMP_temperature;BMP_pressure;BME280_temperature;BME280_humidity;BME280_pressure;Samples;Min_cycle;Max_cycle;Signal;HPM_P1;HPM_P2
2022/10/07 00:00:23;;;;;;;9.82;1.60;;;9.80;99.90;;;;;;4918992;29;20043;-85
2022/10/07 00:02:49;;;;;;;12.00;1.65;;;9.80;99.90;;;;;;4915690;29;20039;-85
2022/10/07 00:05:14;;;;;;;9.85;1.83;;;9.80;99.90;;;;;;4936277;29;20083;-86
2022/10/07 00:07:40;;;;;;;7.22;1.65;;;9.80;99.90;;;;;;4928990;29;20415;-86
2022/10/07 00:10:06;;;;;;;11.75;2.30;;;9.70;99.90;;;;;;4903611;29;20524;-85
2022/10/07 00:12:32;;;;;;;10.98;1.90;;;9.70;99.90;;;;;;4920279;29;20035;-85
2022/10/07 00:14:57;;;;;;;5.82;1.92;;;9.70;99.90;;;;;;4915143;29;20036;-85
2022/10/07 00:17:23;;;;;;;8.70;1.77;;;9.70;99.90;;;;;;4914596;29;20035;-85
2022/10/07 00:19:49;;;;;;;9.52;1.83;;;9.60;99.90;;;;;;4956175;28;20044;-85
2022/10/07 00:22:14;;;;;;;6.13;1.23;;;9.60;99.90;;;;;;4921032;29;20035;-85
2022/10/07 00:24:40;;;;;;;7.63;1.92;;;9.60;99.90;;;;;;4935918;29;20036;-85
2022/10/07 00:27:06;;;;;;;9.75;1.80;;;9.60;99.90;;;;;;4922784;29;20031;-85
2022/10/07 00:29:31;;;;;;;9.98;1.83;;;9.60;99.90;;;;;;4932996;29;20051;-86
2022/10/07 00:31:57;;;;;;;11.82;2.10;;;9.60;99.90;;;;;;4921343;29;20032;-85
2022/10/07 00:34:22;;;;;;;7.25;1.52;;;9.70;99.90;;;;;;4915798;29;20066;-86
2022/10/07 00:36:49;;;;;;;7.18;1.90;;;9.60;99.90;;;;;;4954649;28;20119;-85
2022/10/07 00:39:16;;;;;;;12.13;2.97;;;9.60;99.90;;;;;;4902551;29;20050;-85
2022/10/07 00:41:50;;;;;;;13.23;1.98;;;9.60;99.90;;;;;;4938006;29;20052;-85
2022/10/07 00:44:31;;;;;;;5.10;1.58;;;9.60;99.90;;;;;;4929652;29;20441;-86
2022/10/07 00:47:22;;;;;;;8.45;2.10;;;9.60;99.90;;;;;;4907277;29;20040;-86
2022/10/07 00:50:01;;;;;;;9.75;2.28;;;9.60;99.90;;;;;;4902671;29;20086;-85
2022/10/07 00:52:29;;;;;;;7.70;1.75;;;9.70;99.90;;;;;;4947226;28;20044;-86
2022/10/07 00:54:58;;;;;;;8.40;1.75;;;9.60;99.90;;;;;;4934558;29;20043;-85
2022/10/07 00:57:26;;;;;;;5.72;1.67;;;9.60;99.90;;;;;;4939871;29;20039;-85
2022/10/07 00:59:54;;;;;;;11.25;2.30;;;9.60;99.90;;;;;;4903152;29;20313;-85
2022/10/07 01:02:22;;;;;;;10.55;2.47;;;9.60;99.90;;;;;;4932863;29;20095;-85
2022/10/07 01:04:48;;;;;;;7.78;1.40;;;9.60;99.90;;;;;;4931057;29;20081;-85
2022/10/07 01:07:17;;;;;;;13.07;1.70;;;9.60;99.90;;;;;;4901862;29;20048;-85
2022/10/07 01:09:43;;;;;;;13.25;2.58;;;9.50;99.90;;;;;;4921889;29;20496;-85
2022/10/07 01:12:32;;;;;;;9.95;2.30;;;9.50;99.90;;;;;;4903564;29;20031;-85
2022/10/07 01:15:23;;;;;;;7.10;1.65;;;9.50;99.90;;;;;;4914166;29;20156;-86
2022/10/07 01:18:07;;;;;;;7.63;1.52;;;9.50;99.90;;;;;;4946624;28;20127;-85
2022/10/07 01:20:48;;;;;;;7.60;1.95;;;9.40;99.90;;;;;;4916885;29;20040;-86
2022/10/07 01:23:31;;;;;;;12.27;2.45;;;9.40;99.90;;;;;;4939921;29;20136;-84
2022/10/07 01:26:10;;;;;;;13.68;2.03;;;9.40;99.90;;;;;;4936772;29;20097;-85
2022/10/07 01:29:03;;;;;;;10.93;2.45;;;9.40;99.90;;;;;;4908465;29;20039;-85
2022/10/07 01:31:35;;;;;;;9.25;2.33;;;9.30;99.90;;;;;;4901677;29;20067;-85
2022/10/07 01:34:03;;;;;;;12.68;2.17;;;9.30;99.90;;;;;;4952180;28;20043;-85
2022/10/07 01:36:30;;;;;;;12.38;2.72;;;9.30;99.90;;;;;;4937793;29;20091;-85
2022/10/07 01:39:01;;;;;;;11.98;3.25;;;9.30;99.90;;;;;;4940210;29;20054;-86
2022/10/07 01:41:29;;;;;;;9.38;2.20;;;9.30;99.90;;;;;;4938526;29;20042;-85
2022/10/07 01:43:56;;;;;;;12.02;2.33;;;9.30;99.90;;;;;;4920677;29;20395;-86
2022/10/07 01:46:24;;;;;;;9.52;2.22;;;9.30;99.90;;;;;;4925314;29;20087;-85
2022/10/07 01:48:53;;;;;;;9.65;1.75;;;9.30;99.90;;;;;;4921915;29;20102;-86
2022/10/07 01:51:29;;;;;;;9.77;2.35;;;9.20;99.90;;;;;;4935217;29;20108;-85
2022/10/07 01:54:07;;;;;;;12.60;2.65;;;9.30;99.90;;;;;;4934941;29;20840;-86
2022/10/07 01:56:44;;;;;;;13.30;2.47;;;9.20;99.90;;;;;;4907983;29;20042;-86
2022/10/07 01:59:31;;;;;;;7.47;2.17;;;9.20;99.90;;;;;;4948077;28;20043;-85
2022/10/07 02:02:12;;;;;;;7.32;2.03;;;9.30;99.90;;;;;;4941358;29;20372;-85
2022/10/07 02:04:37;;;;;;;11.00;2.75;;;9.20;99.90;;;;;;4939547;29;20129;-84
2022/10/07 02:07:12;;;;;;;14.10;2.15;;;9.60;99.90;;;;;;4917863;29;20619;-86
2022/10/07 02:09:48;;;;;;;12.82;2.00;;;9.20;99.90;;;;;;4922374;29;20040;-86
2022/10/07 02:12:35;;;;;;;8.18;2.22;;;9.20;99.90;;;;;;4950228;28;20076;-86
2022/10/07 02:15:14;;;;;;;15.95;1.98;;;9.10;99.90;;;;;;4937450;29;20444;-85
2022/10/07 02:17:46;;;;;;;14.05;2.80;;;9.20;99.90;;;;;;4925591;29;20099;-86
2022/10/07 02:20:13;;;;;;;11.93;2.60;;;9.20;99.90;;;;;;4960191;28;20062;-86
2022/10/07 02:22:41;;;;;;;9.38;2.85;;;9.10;99.90;;;;;;4940343;29;20472;-85
2022/10/07 02:25:09;;;;;;;7.00;2.35;;;9.20;99.90;;;;;;4954936;28;20040;-86
2022/10/07 02:27:37;;;;;;;7.55;3.08;;;9.10;99.90;;;;;;4932615;29;20039;-85
2022/10/07 02:30:09;;;;;;;12.13;2.13;;;9.10;99.90;;;;;;4907909;29;20047;-86
2022/10/07 02:32:38;;;;;;;10.00;2.05;;;9.10;99.90;;;;;;4919908;29;20043;-85
2022/10/07 02:35:10;;;;;;;14.13;2.60;;;9.10;99.90;;;;;;4924695;29;20035;-85
2022/10/07 02:37:38;;;;;;;9.82;2.60;;;9.20;99.90;;;;;;4918822;29;20040;-85
2022/10/07 02:40:04;;;;;;;13.65;2.25;;;9.20;99.90;;;;;;4920383;29;20118;-85
2022/10/07 02:42:38;;;;;;;13.23;2.35;;;9.10;99.90;;;;;;4922415;29;20488;-86
2022/10/07 02:45:10;;;;;;;16.17;2.80;;;9.10;99.90;;;;;;4924653;29;20035;-85
2022/10/07 02:47:45;;;;;;;12.73;2.25;;;9.10;99.90;;;;;;4933004;29;20091;-85
2022/10/07 02:50:15;;;;;;;10.13;3.10;;;9.10;99.90;;;;;;4919763;29;20040;-85
2022/10/07 02:52:43;;;;;;;22.40;3.97;;;9.20;99.90;;;;;;4924521;29;20075;-85
2022/10/07 02:55:14;;;;;;;14.43;2.65;;;9.10;99.90;;;;;;4903066;29;20036;-85
2022/10/07 02:57:46;;;;;;;15.10;3.38;;;9.10;99.90;;;;;;4952085;28;20051;-85
2022/10/07 03:00:13;;;;;;;16.23;2.75;;;9.10;99.90;;;;;;4899873;29;20058;-85
2022/10/07 03:02:49;;;;;;;9.43;2.50;;;9.10;99.90;;;;;;4914048;29;20043;-85
2022/10/07 03:05:18;;;;;;;11.20;2.80;;;9.00;99.90;;;;;;4948751;28;20040;-86
2022/10/07 03:07:50;;;;;;;12.43;3.13;;;9.00;99.90;;;;;;4932367;29;20040;-86
2022/10/07 03:10:15;;;;;;;8.57;3.10;;;9.10;99.90;;;;;;4949377;28;20058;-85
2022/10/07 03:12:42;;;;;;;16.55;2.80;;;9.10;99.90;;;;;;4924560;29;20040;-85
2022/10/07 03:15:12;;;;;;;11.18;3.35;;;9.00;99.90;;;;;;4937893;29;20118;-85
2022/10/07 03:17:41;;;;;;;17.50;2.72;;;9.00;99.90;;;;;;4949151;28;20032;-85
2022/10/07 03:20:08;;;;;;;12.10;2.30;;;9.00;99.90;;;;;;4948163;28;20127;-85
2022/10/07 03:22:33;;;;;;;9.80;2.83;;;9.00;99.90;;;;;;4910120;29;20039;-85
2022/10/07 03:24:59;;;;;;;19.33;4.28;;;8.90;99.90;;;;;;4910581;29;20392;-85
2022/10/07 03:27:25;;;;;;;17.10;3.17;;;8.90;99.90;;;;;;4918214;29;20109;-85
2022/10/07 03:29:50;;;;;;;11.13;3.10;;;9.00;99.90;;;;;;4933520;29;20040;-85
2022/10/07 03:32:16;;;;;;;15.60;3.15;;;8.90;99.90;;;;;;4935424;29;20051;-85
2022/10/07 03:34:42;;;;;;;17.67;2.95;;;8.90;99.90;;;;;;4938145;29;20575;-85
2022/10/07 03:37:07;;;;;;;16.23;3.72;;;8.90;99.90;;;;;;4919027;29;20064;-85
2022/10/07 03:39:33;;;;;;;15.07;3.17;;;8.90;99.90;;;;;;4910599;29;20614;-84
2022/10/07 03:41:59;;;;;;;15.98;3.20;;;8.90;99.90;;;;;;4948379;28;20646;-85
2022/10/07 03:44:25;;;;;;;15.55;3.40;;;8.90;99.90;;;;;;4954216;28;20035;-85
2022/10/07 03:46:51;;;;;;;12.60;2.72;;;8.90;99.90;;;;;;4906838;29;20159;-85
2022/10/07 03:49:19;;;;;;;9.95;2.58;;;8.90;99.90;;;;;;4950761;28;20122;-85
2022/10/07 03:51:44;;;;;;;18.75;5.50;;;8.90;99.90;;;;;;4917668;29;20090;-85
2022/10/07 03:54:10;;;;;;;10.88;3.20;;;8.80;99.90;;;;;;4938383;29;20035;-85
2022/10/07 03:56:36;;;;;;;16.35;3.30;;;8.90;99.90;;;;;;4914420;29;20040;-85
2022/10/07 03:59:01;;;;;;;13.27;2.83;;;8.90;99.90;;;;;;4916170;29;20059;-85
2022/10/07 04:01:30;;;;;;;15.57;3.60;;;8.80;99.90;;;;;;4946828;28;20043;-85
2022/10/07 04:03:56;;;;;;;21.13;3.55;;;8.80;99.90;;;;;;4899038;29;20526;-85
2022/10/07 04:06:22;;;;;;;15.85;3.72;;;8.90;99.90;;;;;;4911912;29;20050;-85
2022/10/07 04:08:52;;;;;;;14.80;3.20;;;8.90;99.90;;;;;;4925108;29;20168;-85
2022/10/07 04:11:18;;;;;;;17.00;3.17;;;8.90;99.90;;;;;;4901548;29;20078;-85
2022/10/07 04:13:44;;;;;;;18.42;3.72;;;8.90;99.90;;;;;;4928713;29;20039;-86
2022/10/07 04:16:11;;;;;;;12.85;3.45;;;8.90;99.90;;;;;;4942683;28;20586;-86
2022/10/07 04:18:40;;;;;;;17.83;4.45;;;8.80;99.90;;;;;;4944695;28;20062;-85
2022/10/07 04:21:06;;;;;;;11.18;3.35;;;8.90;99.90;;;;;;4944044;28;20047;-85
2022/10/07 04:23:32;;;;;;;14.85;3.63;;;8.90;99.90;;;;;;4931200;29;20043;-87
2022/10/07 04:25:58;;;;;;;16.70;4.05;;;8.90;99.90;;;;;;4929100;29;20048;-86
2022/10/07 04:28:27;;;;;;;14.02;4.00;;;8.90;99.90;;;;;;4946405;28;20035;-86
2022/10/07 04:30:53;;;;;;;11.13;3.20;;;8.90;99.90;;;;;;4911891;29;21010;-86
2022/10/07 04:33:50;;;;;;;18.88;4.32;;;8.90;99.90;;;;;;4903460;29;20097;-87
2022/10/07 04:36:15;;;;;;;13.82;3.15;;;8.90;99.90;;;;;;4917535;29;20043;-88
2022/10/07 04:39:25;;;;;;;11.95;3.20;;;8.90;99.90;;;;;;4941573;28;20059;-87
2022/10/07 04:41:50;;;;;;;22.30;6.20;;;8.80;99.90;;;;;;4931362;29;20515;-86
2022/10/07 04:44:16;;;;;;;13.45;3.28;;;9.00;99.90;;;;;;4901040;29;20052;-85
2022/10/07 04:46:41;;;;;;;16.52;3.92;;;8.90;99.90;;;;;;4924995;29;20531;-86
2022/10/07 04:49:09;;;;;;;17.48;3.55;;;8.90;99.90;;;;;;4914576;29;20043;-84
2022/10/07 04:51:34;;;;;;;15.05;3.22;;;9.00;99.90;;;;;;4933456;29;20407;-87
2022/10/07 04:54:00;;;;;;;16.58;3.70;;;9.00;99.90;;;;;;4911614;29;20031;-87
2022/10/07 04:56:39;;;;;;;19.98;4.00;;;9.00;99.90;;;;;;4928343;29;20051;-87
2022/10/07 04:59:07;;;;;;;20.10;4.03;;;9.00;99.90;;;;;;4914484;29;20064;-87
2022/10/07 05:01:32;;;;;;;19.02;3.83;;;9.00;99.90;;;;;;4948438;28;20036;-86
2022/10/07 05:03:59;;;;;;;18.17;4.38;;;9.00;99.90;;;;;;4911676;29;20044;-86
2022/10/07 05:06:24;;;;;;;15.75;5.20;;;9.00;99.90;;;;;;4931273;29;20040;-86
2022/10/07 05:08:53;;;;;;;17.70;4.40;;;9.00;99.90;;;;;;4921436;29;20529;-86
2022/10/07 05:11:18;;;;;;;19.15;4.50;;;9.00;99.90;;;;;;4932095;29;20618;-85
2022/10/07 05:13:44;;;;;;;17.27;5.95;;;8.90;99.90;;;;;;4949952;28;20106;-86
2022/10/07 05:16:10;;;;;;;22.08;6.30;;;9.00;99.90;;;;;;4919270;29;20141;-85
2022/10/07 05:18:38;;;;;;;16.08;4.78;;;9.00;99.90;;;;;;4931665;29;20044;-84
2022/10/07 05:21:07;;;;;;;14.88;3.88;;;9.00;99.90;;;;;;4943357;28;20071;-85
2022/10/07 05:23:35;;;;;;;17.55;4.28;;;9.00;99.90;;;;;;4947876;28;20063;-85
2022/10/07 05:26:06;;;;;;;14.38;4.50;;;9.00;99.90;;;;;;4935532;29;20051;-86
2022/10/07 05:28:32;;;;;;;20.98;6.22;;;9.00;99.90;;;;;;4952432;28;20524;-87
2022/10/07 05:31:08;;;;;;;22.67;5.80;;;9.00;99.90;;;;;;4938909;29;20040;-87
2022/10/07 05:33:35;;;;;;;10.40;4.40;;;9.00;99.90;;;;;;4932184;29;20032;-87
2022/10/07 05:36:02;;;;;;;17.58;5.45;;;8.90;99.90;;;;;;4918627;29;20035;-85
2022/10/07 05:38:27;;;;;;;18.48;4.32;;;9.00;99.90;;;;;;4921179;29;20476;-85
2022/10/07 05:40:58;;;;;;;18.27;6.00;;;8.90;99.90;;;;;;4902571;29;20047;-84
2022/10/07 05:43:28;;;;;;;14.65;5.07;;;8.90;99.90;;;;;;4930358;29;20061;-83
2022/10/07 05:46:12;;;;;;;23.33;6.25;;;9.00;99.90;;;;;;4920767;29;20043;-85
2022/10/07 05:48:39;;;;;;;25.55;7.35;;;8.90;99.90;;;;;;4945227;28;20050;-85
2022/10/07 05:51:06;;;;;;;20.63;5.60;;;9.00;99.90;;;;;;4913204;29;20048;-85
2022/10/07 05:53:31;;;;;;;20.15;4.57;;;8.90;99.90;;;;;;4913268;29;20445;-84
2022/10/07 05:55:57;;;;;;;15.13;4.00;;;8.90;99.90;;;;;;4902142;29;20091;-84
2022/10/07 05:58:23;;;;;;;19.00;5.15;;;9.00;99.90;;;;;;4925130;29;20738;-85
2022/10/07 06:00:54;;;;;;;18.83;5.28;;;9.00;99.90;;;;;;4929830;29;20399;-87
2022/10/07 06:03:21;;;;;;;14.80;4.22;;;8.90;99.90;;;;;;4929219;29;20051;-86
2022/10/07 06:05:49;;;;;;;14.93;4.63;;;9.00;99.90;;;;;;4925725;29;20051;-84
2022/10/07 06:08:15;;;;;;;23.25;4.97;;;9.10;99.90;;;;;;4900020;29;20046;-85
2022/10/07 06:13:24;;;;;;;30.67;5.82;;;9.20;99.90;;;;;;4948451;28;20071;-85
2022/10/07 06:15:50;;;;;;;16.80;4.35;;;9.30;99.90;;;;;;4921570;29;20146;-85
2022/10/07 06:18:15;;;;;;;18.52;4.55;;;9.40;99.90;;;;;;4933889;29;20043;-86
2022/10/07 06:20:41;;;;;;;18.45;4.88;;;9.50;99.90;;;;;;4901869;29;20043;-86
2022/10/07 06:23:07;;;;;;;15.00;4.38;;;9.50;99.90;;;;;;4902688;29;20062;-86
2022/10/07 06:25:33;;;;;;;10.55;3.28;;;9.60;99.90;;;;;;4919398;29;20408;-85
2022/10/07 06:27:59;;;;;;;13.98;3.85;;;9.80;99.90;;;;;;4930555;29;20484;-86
2022/10/07 06:30:25;;;;;;;14.55;3.60;;;10.20;99.90;;;;;;4919851;29;20054;-84
2022/10/07 06:32:51;;;;;;;12.98;3.17;;;10.50;99.90;;;;;;4913044;29;20032;-85
2022/10/07 06:35:19;;;;;;;18.25;4.03;;;10.60;99.90;;;;;;4946221;28;20040;-87
2022/10/07 06:37:44;;;;;;;16.80;4.78;;;10.60;99.90;;;;;;4928099;29;20564;-87
2022/10/07 06:40:10;;;;;;;14.25;3.40;;;10.50;99.90;;;;;;4937408;29;20043;-85
2022/10/07 06:42:36;;;;;;;15.18;3.65;;;10.40;99.90;;;;;;4930885;29;20040;-86
2022/10/07 06:45:01;;;;;;;15.40;4.10;;;10.40;99.90;;;;;;4945505;28;20046;-86
2022/10/07 06:47:27;;;;;;;15.35;4.50;;;10.60;99.90;;;;;;4943877;28;20035;-84
2022/10/07 06:49:52;;;;;;;12.68;3.20;;;10.70;99.90;;;;;;4946359;28;20037;-86
2022/10/07 06:52:18;;;;;;;17.17;3.60;;;10.70;99.90;;;;;;4921190;29;20031;-83
2022/10/07 06:54:43;;;;;;;18.55;4.95;;;10.70;99.90;;;;;;4921304;29;20043;-85
2022/10/07 06:57:09;;;;;;;13.90;3.42;;;10.70;99.90;;;;;;4917159;29;20040;-86
2022/10/07 06:59:35;;;;;;;17.67;4.05;;;10.70;99.90;;;;;;4917763;29;20043;-84
2022/10/07 07:02:00;;;;;;;12.88;3.35;;;10.70;99.90;;;;;;4934308;29;20077;-84
2022/10/07 07:04:26;;;;;;;14.07;3.45;;;10.60;99.90;;;;;;4929068;29;20062;-84
2022/10/07 07:06:52;;;;;;;17.88;4.65;;;10.60;99.90;;;;;;4948202;28;20118;-86
2022/10/07 07:09:20;;;;;;;11.88;4.63;;;10.60;99.90;;;;;;4933097;29;20487;-85
2022/10/07 07:11:45;;;;;;;18.65;3.40;;;10.50;99.90;;;;;;4915560;29;20043;-85
2022/10/07 07:14:13;;;;;;;16.33;3.72;;;10.50;99.90;;;;;;4944641;28;20043;-85
2022/10/07 07:16:39;;;;;;;15.13;3.30;;;10.50;99.90;;;;;;4932868;29;20087;-84
2022/10/07 07:19:07;;;;;;;21.60;4.10;;;10.50;99.90;;;;;;4898415;29;20047;-83
2022/10/07 07:21:34;;;;;;;22.30;4.53;;;10.60;99.90;;;;;;4896366;29;20047;-85
2022/10/07 07:24:01;;;;;;;21.08;3.97;;;10.60;99.90;;;;;;4896947;29;20385;-83
2022/10/07 07:26:27;;;;;;;15.40;3.55;;;10.60;99.90;;;;;;4945626;28;20055;-85
2022/10/07 07:28:59;;;;;;;18.45;4.60;;;10.70;99.90;;;;;;4941628;28;20059;-85
2022/10/07 07:31:27;;;;;;;11.70;3.10;;;10.80;99.90;;;;;;4915339;29;20473;-85
2022/10/07 07:33:52;;;;;;;16.45;3.47;;;10.90;99.90;;;;;;4916082;29;20437;-85
2022/10/07 07:36:22;;;;;;;21.85;3.70;;;11.00;99.90;;;;;;4916939;29;20036;-84
2022/10/07 07:39:21;;;;;;;16.17;3.35;;;11.50;99.90;;;;;;4933404;29;20044;-86
2022/10/07 07:42:31;;;;;;;14.65;3.40;;;11.20;99.90;;;;;;4935892;29;20424;-88
2022/10/07 07:44:57;;;;;;;13.52;2.85;;;11.40;99.90;;;;;;4911830;29;20480;-86
2022/10/07 07:48:14;;;;;;;13.65;2.72;;;11.40;99.90;;;;;;4919345;29;20059;-87
2022/10/07 07:51:33;;;;;;;16.42;3.10;;;11.60;99.90;;;;;;4944078;28;20048;-88
2022/10/07 07:54:29;;;;;;;15.07;3.05;;;11.70;99.90;;;;;;4916696;29;20040;-86
2022/10/07 07:56:56;;;;;;;20.70;3.70;;;11.80;99.90;;;;;;4909837;29;20109;-87
2022/10/07 07:59:47;;;;;;;19.75;3.85;;;11.80;99.90;;;;;;4944276;28;20044;-86
2022/10/07 08:02:27;;;;;;;9.95;2.33;;;12.20;99.90;;;;;;4880940;29;20139;-86
2022/10/07 08:04:56;;;;;;;19.92;3.05;;;12.30;99.90;;;;;;4879349;29;20070;-87
2022/10/07 08:07:25;;;;;;;13.75;2.20;;;12.50;99.90;;;;;;4913064;29;20044;-86
2022/10/07 08:10:11;;;;;;;18.73;4.25;;;12.60;99.90;;;;;;4931494;29;20051;-85
2022/10/07 08:12:38;;;;;;;18.60;3.83;;;12.10;99.90;;;;;;4916036;29;20044;-85
2022/10/07 08:15:05;;;;;;;13.60;2.63;;;12.90;99.90;;;;;;4917524;29;20040;-84
2022/10/07 08:17:31;;;;;;;15.27;2.28;;;12.80;99.90;;;;;;4911332;29;20044;-86
2022/10/07 08:19:56;;;;;;;17.58;3.30;;;12.80;99.90;;;;;;4931732;29;20058;-84
2022/10/07 08:22:22;;;;;;;13.40;2.28;;;12.90;99.90;;;;;;4947482;28;20047;-84
2022/10/07 08:24:47;;;;;;;13.95;2.40;;;12.90;99.90;;;;;;4906990;29;20095;-84
2022/10/07 08:27:13;;;;;;;16.13;3.42;;;13.00;99.90;;;;;;4932371;29;20090;-84
2022/10/07 08:29:38;;;;;;;16.83;2.88;;;13.10;99.90;;;;;;4930302;29;21083;-84
2022/10/07 08:32:07;;;;;;;12.20;2.10;;;13.10;99.90;;;;;;4896376;29;20130;-85
2022/10/07 08:34:33;;;;;;;18.63;2.58;;;13.10;99.90;;;;;;4906202;29;20078;-85
2022/10/07 08:37:00;;;;;;;13.93;2.53;;;13.20;99.90;;;;;;4940101;28;20508;-85
2022/10/07 08:39:29;;;;;;;18.02;2.22;;;13.30;99.90;;;;;;4927766;29;20079;-85
2022/10/07 08:42:01;;;;;;;16.70;3.13;;;13.30;99.90;;;;;;4943188;28;20396;-82
2022/10/07 08:44:55;;;;;;;14.35;2.55;;;13.40;99.90;;;;;;4922972;29;20047;-87
2022/10/07 08:47:42;;;;;;;10.25;2.63;;;13.50;99.90;;;;;;4907390;29;20040;-87
2022/10/07 08:50:20;;;;;;;13.18;2.70;;;13.60;99.90;;;;;;4923750;29;20048;-84
2022/10/07 08:53:19;;;;;;;10.85;2.08;;;13.70;99.90;;;;;;4919708;29;20039;-85
2022/10/07 08:55:53;;;;;;;11.13;2.45;;;13.80;99.90;;;;;;4907740;29;20051;-87
2022/10/07 08:58:25;;;;;;;11.32;2.53;;;14.70;99.90;;;;;;4939519;28;20039;-87
2022/10/07 09:01:29;;;;;;;14.73;2.35;;;13.90;99.90;;;;;;4938781;28;20452;-85
2022/10/07 09:04:28;;;;;;;20.90;3.05;;;14.00;99.90;;;;;;4909598;29;20036;-85
2022/10/07 09:06:59;;;;;;;16.17;2.67;;;14.10;99.90;;;;;;4926625;29;20063;-86
2022/10/07 09:09:32;;;;;;;15.15;3.30;;;14.20;99.90;;;;;;4955957;28;20472;-85
2022/10/07 09:11:59;;;;;;;20.48;2.72;;;14.40;99.90;;;;;;4925220;28;20058;-84
2022/10/07 09:14:30;;;;;;;16.58;2.47;;;14.40;99.90;;;;;;4902461;29;20820;-85
2022/10/07 09:17:14;;;;;;;13.93;2.15;;;14.50;99.90;;;;;;4941147;28;20091;-85
2022/10/07 09:19:54;;;;;;;14.07;2.53;;;14.60;99.90;;;;;;4930964;29;20036;-86
2022/10/07 09:22:26;;;;;;;18.38;2.70;;;14.60;99.90;;;;;;4914990;29;20035;-85
2022/10/07 09:25:30;;;;;;;16.70;2.58;;;14.60;99.90;;;;;;4919981;29;20051;-84
2022/10/07 09:27:56;;;;;;;14.52;3.03;;;14.60;99.90;;;;;;4915322;29;20067;-84
2022/10/07 09:30:24;;;;;;;18.92;2.63;;;14.80;99.90;;;;;;4917509;29;20693;-85
2022/10/07 09:32:53;;;;;;;15.40;2.40;;;14.90;99.90;;;;;;4935869;29;20480;-85
2022/10/07 09:35:23;;;;;;;19.77;2.78;;;14.90;99.90;;;;;;4943690;28;20046;-84
2022/10/07 09:38:14;;;;;;;10.95;2.75;;;15.00;99.90;;;;;;4930980;29;20040;-84
2022/10/07 09:41:16;;;;;;;15.70;2.58;;;15.00;99.90;;;;;;4928278;29;20137;-84
2022/10/07 09:44:01;;;;;;;14.10;2.00;;;15.10;99.90;;;;;;4914586;29;20813;-84
2022/10/07 09:46:33;;;;;;;17.50;3.05;;;15.20;99.90;;;;;;4945836;28;20126;-84
2022/10/07 09:49:04;;;;;;;15.13;2.58;;;15.30;99.90;;;;;;4932164;29;20051;-85
2022/10/07 09:51:31;;;;;;;15.38;3.08;;;15.40;99.90;;;;;;4919806;29;20040;-84
2022/10/07 09:54:17;;;;;;;21.50;2.67;;;15.40;99.90;;;;;;4937592;29;20134;-84
2022/10/07 09:56:53;;;;;;;14.45;2.53;;;15.50;99.90;;;;;;4934156;29;20468;-84
2022/10/07 09:59:24;;;;;;;15.15;3.30;;;15.50;99.90;;;;;;4902520;29;20043;-86
2022/10/07 10:01:51;;;;;;;15.77;2.83;;;15.60;99.90;;;;;;4934340;29;20424;-84
2022/10/07 10:04:19;;;;;;;15.85;2.50;;;15.80;99.90;;;;;;4949318;28;20039;-84
2022/10/07 10:06:52;;;;;;;17.92;2.67;;;15.90;99.90;;;;;;4921204;29;20048;-86
2022/10/07 10:09:24;;;;;;;18.33;3.97;;;16.10;99.90;;;;;;4920641;29;20391;-85
2022/10/07 10:12:25;;;;;;;11.80;1.95;;;16.20;99.90;;;;;;4932144;29;20052;-84
2022/10/07 10:15:15;;;;;;;11.48;3.88;;;16.30;99.90;;;;;;4844999;29;20097;-84
2022/10/07 10:17:41;;;;;;;10.68;2.05;;;16.30;99.90;;;;;;4891382;29;20071;-83
2022/10/07 10:20:24;;;;;;;16.13;2.50;;;16.30;99.90;;;;;;4922512;29;20071;-84
2022/10/07 10:22:50;;;;;;;14.43;2.67;;;16.30;99.90;;;;;;4908689;29;20055;-84
2022/10/07 10:28:46;;;;;;;16.55;3.33;;;16.50;99.90;;;;;;4930871;29;20061;-84
2022/10/07 10:31:41;;;;;;;16.00;2.40;;;16.60;99.90;;;;;;4951207;28;20036;-84
2022/10/07 10:34:28;;;;;;;14.02;2.08;;;16.60;99.90;;;;;;4949342;28;20456;-84
2022/10/07 10:37:07;;;;;;;11.85;2.30;;;16.60;99.90;;;;;;4950012;28;20126;-83
2022/10/07 10:40:10;;;;;;;14.82;3.13;;;16.60;99.90;;;;;;4932857;29;20590;-84
2022/10/07 10:42:44;;;;;;;18.48;2.85;;;16.60;99.90;;;;;;4951929;28;20043;-84
2022/10/07 10:45:31;;;;;;;13.43;2.70;;;16.60;99.90;;;;;;4934822;29;20227;-83
2022/10/07 10:48:38;;;;;;;11.30;2.03;;;16.80;99.90;;;;;;4921643;29;20047;-84
2022/10/07 10:51:45;;;;;;;8.65;1.80;;;16.90;99.90;;;;;;4937871;29;20523;-84
2022/10/07 10:54:37;;;;;;;;;;;17.00;99.90;;;;;;4952160;28;20683;-85
2022/10/07 10:57:31;;;;;;;18.25;2.53;;;17.10;99.90;;;;;;4910346;29;19993;-84
2022/10/07 11:00:31;;;;;;;12.10;2.28;;;17.10;99.90;;;;;;4953323;28;20078;-83
2022/10/07 11:03:38;;;;;;;14.10;2.03;;;17.20;99.90;;;;;;4925504;29;20039;-84
2022/10/07 11:06:08;;;;;;;12.80;1.73;;;17.10;99.90;;;;;;4943765;28;20036;-83
2022/10/07 11:08:36;;;;;;;11.05;1.90;;;17.20;99.90;;;;;;4930556;29;20578;-84
2022/10/07 11:11:20;;;;;;;13.43;2.03;;;17.20;99.90;;;;;;4932255;29;20046;-84
2022/10/07 11:13:53;;;;;;;16.67;2.97;;;17.20;99.90;;;;;;4915331;29;20043;-84
2022/10/07 11:16:23;;;;;;;13.60;1.85;;;17.10;99.90;;;;;;4915557;29;20443;-84
2022/10/07 11:19:03;;;;;;;11.93;2.38;;;17.10;99.90;;;;;;4902826;29;20631;-84
2022/10/07 11:21:40;;;;;;;12.82;2.08;;;17.20;99.90;;;;;;4900836;29;20121;-83
2022/10/07 11:24:41;;;;;;;19.63;3.83;;;17.40;99.90;;;;;;4950974;28;20530;-85
2022/10/07 11:27:23;;;;;;;12.52;2.40;;;17.80;99.90;;;;;;4931032;29;20051;-84
2022/10/07 11:30:01;;;;;;;15.45;2.72;;;18.00;99.90;;;;;;4930682;29;20082;-84
2022/10/07 11:32:54;;;;;;;30.80;2.85;;;18.20;99.90;;;;;;4930694;29;20035;-86
2022/10/07 11:36:07;;;;;;;15.02;3.38;;;18.50;99.90;;;;;;4932340;29;20031;-86
2022/10/07 11:38:37;;;;;;;8.57;2.45;;;18.40;99.90;;;;;;4929455;29;20082;-86
2022/10/07 11:41:14;;;;;;;11.90;2.53;;;18.50;99.90;;;;;;4932603;29;20050;-85
2022/10/07 11:43:45;;;;;;;13.40;2.45;;;18.50;99.90;;;;;;4918092;29;20047;-85
2022/10/07 11:46:30;;;;;;;8.32;1.85;;;18.80;99.90;;;;;;4956501;28;20077;-85
2022/10/07 11:49:05;;;;;;;17.25;2.63;;;18.80;99.90;;;;;;4917431;29;20114;-85
2022/10/07 11:51:39;;;;;;;12.70;2.60;;;18.90;99.90;;;;;;4916430;29;20042;-85
2022/10/07 11:54:12;;;;;;;13.95;2.17;;;18.90;99.90;;;;;;4953026;28;20051;-84
2022/10/07 11:56:46;;;;;;;15.70;2.40;;;18.90;99.90;;;;;;4945471;28;20978;-84
2022/10/07 11:59:33;;;;;;;15.63;2.50;;;18.80;99.90;;;;;;4952404;28;20054;-84
2022/10/07 12:01:59;;;;;;;18.42;3.60;;;18.60;99.90;;;;;;4957840;28;20043;-85
2022/10/07 12:04:34;;;;;;;12.68;2.28;;;18.40;99.90;;;;;;4920704;29;20046;-85
2022/10/07 12:07:33;;;;;;;10.20;2.35;;;18.30;99.90;;;;;;4937086;29;20075;-86
2022/10/07 12:10:02;;;;;;;20.38;2.60;;;18.10;99.90;;;;;;4932592;29;20088;-85
2022/10/07 12:12:49;;;;;;;11.82;1.70;;;18.00;99.90;;;;;;4905675;29;20388;-87
2022/10/07 12:15:32;;;;;;;13.60;1.95;;;17.90;99.90;;;;;;4925350;29;20038;-85
2022/10/07 12:18:04;;;;;;;12.05;2.15;;;18.00;99.90;;;;;;4935033;29;20044;-86
2022/10/07 12:20:41;;;;;;;12.73;1.85;;;18.00;99.90;;;;;;4924952;29;20055;-85
2022/10/07 12:23:19;;;;;;;13.10;2.15;;;18.00;99.90;;;;;;4933503;29;20035;-85
2022/10/07 12:25:46;;;;;;;13.48;1.90;;;18.00;99.90;;;;;;4914447;29;20047;-85
2022/10/07 12:28:25;;;;;;;7.18;1.73;;;18.10;99.90;;;;;;4932997;29;20126;-85
2022/10/07 12:30:56;;;;;;;8.32;2.03;;;18.00;99.90;;;;;;4951057;28;20485;-85
2022/10/07 12:33:42;;;;;;;10.43;1.40;;;18.00;99.90;;;;;;4950365;28;20038;-85
2022/10/07 12:36:20;;;;;;;6.53;1.17;;;18.00;99.90;;;;;;4918737;29;20046;-84
2022/10/07 12:38:55;;;;;;;8.60;1.98;;;18.00;99.90;;;;;;4947739;28;20051;-85
2022/10/07 12:41:41;;;;;;;9.63;2.58;;;18.00;99.90;;;;;;4938427;29;20166;-84
2022/10/07 12:44:16;;;;;;;10.63;1.85;;;17.90;99.90;;;;;;4922963;29;20059;-85
2022/10/07 12:46:58;;;;;;;12.02;2.30;;;17.90;99.90;;;;;;4916082;29;20047;-85
2022/10/07 12:49:39;;;;;;;10.70;1.95;;;17.80;99.90;;;;;;4921072;29;20170;-84
2022/10/07 12:52:26;;;;;;;9.38;1.40;;;17.80;99.90;;;;;;4938398;29;20059;-86
2022/10/07 12:54:54;;;;;;;10.02;1.85;;;17.80;99.90;;;;;;4909777;29;20039;-85
2022/10/07 12:57:22;;;;;;;10.50;1.60;;;17.80;99.90;;;;;;4901957;29;20039;-86
2022/10/07 13:00:08;;;;;;;11.00;2.08;;;17.70;99.90;;;;;;4938879;29;20039;-85
2022/10/07 13:02:52;;;;;;;7.95;1.40;;;17.60;99.90;;;;;;4950815;28;20043;-86
2022/10/07 13:05:45;;;;;;;12.82;2.95;;;17.60;99.90;;;;;;4897585;29;20877;-85
2022/10/07 13:08:35;;;;;;;7.78;1.58;;;17.50;99.90;;;;;;4950567;28;20046;-85
2022/10/07 13:11:31;;;;;;;8.27;1.75;;;17.40;99.90;;;;;;4919553;29;20101;-84
2022/10/07 13:14:09;;;;;;;9.93;1.17;;;17.40;99.90;;;;;;4939124;29;20046;-85
2022/10/07 13:16:34;;;;;;;9.02;1.60;;;17.40;99.90;;;;;;4947573;28;20052;-86
2022/10/07 13:19:13;;;;;;;11.20;1.83;;;17.40;99.90;;;;;;4933856;29;20043;-84
2022/10/07 13:21:45;;;;;;;9.48;1.90;;;17.50;99.90;;;;;;4916758;29;20075;-85